首页
METAR-TAF:

METAR-TAF

机场 :

格拉茨, 奥地利

纬度: 47-00N, 经度: 015-26E, 海拔: 340米

当前天气观测

该预报发布于24分钟前的01:20 UTC
风速4节,风向西
温度 4°C
湿度 100%
气压 1017 hPa
能見度: 0750
少量云层低于100英尺
散云层高于100英尺
碎片雾

METAR: LOWG 200120Z AUTO 26004KT 0750 R17/P1500U R35/0650D BCFG FEW000 SCT001 04/04 Q1017

时间: 02:44 (01:44 UTC)

预报

该预报发布于2小时和29分钟前的23:15 UTC
预报有效从20日的 00点(UTC)到 20日的 24点(UTC)
风速2节,风向多变
能见度10公里或以上
多云层高于5000英尺
几率 40% :
短暂存在
从 20日的 00点(UTC)到 20日的 08点(UTC)
能見度: 0300
散云层高于100英尺
碎片雾
成为
从 20日的 07点(UTC)到 20日的 10点(UTC)
能見度: 6000
散云层高于1000英尺
多云层高于2000英尺
小雨
短暂存在
从 20日的 13点(UTC)到 20日的 20点(UTC)
能見度: 2000
多云层高于700英尺
雨, 轻雾
几率 30% :
短暂存在
从 20日的 20点(UTC)到 20日的 24点(UTC)
能見度: 1200
多云层高于500英尺
小雨, 碎片雾

TAF: LOWG 192315Z 2000/2024 VRB02KT 9999 BKN050 TX09/2013Z TN06/2004Z PROB40 TEMPO 2000/2008 0300 BCFG SCT001 BECMG 2007/2010 6000 -RA SCT010 BKN020 TEMPO 2013/2020 2000 RA BR BKN007 PROB30 TEMPO 2020/2024 1200 -RA BCFG BKN005

超过4000个机场的气象观测和天气预报(METAR&TAF报告)。

可查询的气象台以黄色和红色小点在地图上表示。

将鼠标移到小点上方,可查看气象台名称。

然后点击查看天气观测和预报。

如需切换地图:点击带黑十字的绿色按钮放大地图;点击带横线的绿色按钮缩小地图;或者点击绿色箭头查看邻近地区的地图。


METAR-TAF: